Terminal Aerodrome Forecast
Issued by NWS Lake Charles, LA

Home | Current Version | Previous Version | Text Only | Print | Product List | Glossary On
Versions: 1 2 3 4 5 6 7 8 9 10 11 12 13 14 15 16 17
467
FTUS44 KLCH 110522
TAFLFT
TAF
KLFT 110522Z 1106/1206 10004KT P6SM BKN070
     FM111400 13007KT P6SM OVC060
     FM111900 17013G19KT P6SM OVC050
     FM120000 17010KT P6SM OVC025=

USA.gov is the U.S. government's official web portal to all federal, state and local government web resources and services.